DW5599 Weather Reports


Display with metric or nautical units.
time (UTC)temp
F
wind
direction
speed
MPH
gust
MPH
rain 1hr
in
rain 24hr
in
rain mn
in
humidity
%
barometer
mb
20180117214409 75 139 5.0 9.0 0.00 0.05 0.05 70 1010.3
20180117212903 75 197 5.0 9.0 0.00 0.05 0.05 70 1010.3
20180117211413 74 206 5.0 9.0 0.00 0.05 0.05 71 1010.2
20180117205902 74 200 6.0 12.0 0.00 0.05 0.05 71 1010.4
20180117204418 74 190 4.0 8.0 0.00 0.05 0.05 72 1010.5
20180117202759 73 192 4.0 10.0 0.00 0.05 0.05 75 1010.4
20180117201306 73 196 3.0 7.0 0.00 0.05 0.05 79 1010.7
20180117195757 72 198 4.0 8.0 0.01 0.05 0.05 79 1010.7
20180117194206 71 188 4.0 7.0 0.01 0.05 0.05 83 1011.2
20180117192706 71 192 1.0 4.0 0.01 0.05 0.05 85 1011.1
20180117191203 70 185 3.0 9.0 0.01 0.05 0.05 87 1011.5
20180117185706 71 198 4.0 8.0 0.00 0.04 0.04 83 1012.1
20180117184115 70 193 0.0 3.0 0.00 0.04 0.04 82 1011.3
20180117182707 70 184 1.0 4.0 0.01 0.04 0.04 82 1011.5
20180117181103 70 185 0.0 6.0 0.02 0.04 0.04 85 1011.5
20180117175659 70 153 2.0 5.0 0.02 0.04 0.04 84 1012.2
20180117174109 69 98 1.0 8.0 0.02 0.04 0.04 84 1012.1
20180117172703 69 100 4.0 11.0 0.02 0.03 0.03 84 1011.4
20180117171009 71 84 5.0 10.0 0.01 0.02 0.02 80 1011.8
20180117165701 71 80 5.0 8.0 0.00 0.02 0.02 75 1012.0
20180117164010 70 113 2.0 5.0 0.01 0.02 0.02 78 1012.4
20180117162659 70 194 3.0 11.0 0.02 0.02 0.02 80 1012.6
20180117160954 69 168 1.0 8.0 0.02 0.02 0.02 82 1013.2
20180117155404 69 208 3.0 13.0 0.02 0.02 0.02 81 1013.4
20180117153858 69 182 3.0 11.0 0.01 0.01 0.01 80 1014.0
20180117152409 70 197 5.0 16.0 0.00 0.00 0.00 74 1013.8
20180117150900 70 222 7.0 15.0 0.00 0.00 0.00 73 1013.9
20180117145319 70 201 7.0 15.0 0.00 0.00 0.00 73 1013.7
20180117143900 70 198 9.0 18.0 0.00 0.00 0.00 73 1013.7
20180117142405 70 200 8.0 16.0 0.00 0.00 0.00 74 1013.7
20180117140851 70 196 7.0 21.0 0.00 0.00 0.00 75 1013.8
20180117135200 70 188 10.0 20.0 0.00 0.00 0.00 75 1013.7
20180117133903 70 205 11.0 23.0 0.00 0.00 0.00 76 1014.0
20180117132201 70 211 11.0 19.0 0.00 0.00 0.00 78 1014.2
20180117130906 70 148 8.0 19.0 0.00 0.00 0.00 79 1014.0
20180117125104 71 192 7.0 16.0 0.00 0.00 0.00 80 1013.7
20180117123908 70 185 9.0 21.0 0.00 0.00 0.00 80 1013.7
20180117122111 70 190 12.0 24.0 0.00 0.00 0.00 81 1013.4
20180117120900 70 197 9.0 20.0 0.00 0.00 0.00 81 1013.3
20180117115101 71 178 10.0 22.0 0.00 0.00 0.00 84 1013.4
20180117113901 71 198 10.0 19.0 0.00 0.00 0.00 83 1013.2
20180117111957 72 175 5.0 17.0 0.00 0.00 0.00 82 1013.1
20180117110456 73 192 5.0 15.0 0.00 0.00 0.00 83 1012.4
20180117104959 73 201 3.0 11.0 0.00 0.00 0.00 83 1012.2
20180117103429 72 195 3.0 9.0 0.00 0.00 0.00 84 1011.8
20180117101908 72 105 5.0 16.0 0.00 0.00 0.00 84 1011.8
20180117100401 72 205 4.0 11.0 0.00 0.00 0.00 85 1011.9
20180117094859 73 200 4.0 10.0 0.00 0.00 0.00 83 1011.9
20180117093315 74 123 3.0 5.0 0.00 0.00 0.00 78 1011.5
20180117091901 74 95 1.0 7.0 0.00 0.00 0.00 79 1011.3
20180117090258 74 92 2.0 5.0 0.00 0.00 0.00 79 1011.3
20180117084856 74 94 0.0 5.0 0.00 0.00 0.00 80 1011.4
20180117083321 74 96 3.0 6.0 0.00 0.00 0.00 80 1011.4
20180117081905 74 86 1.0 3.0 0.00 0.00 0.00 81 1011.3
20180117080203 75 86 0.0 3.0 0.00 0.00 0.00 81 1011.3
20180117074908 75 86 2.0 5.0 0.00 0.00 0.00 79 1011.3
20180117073333 76 86 1.0 5.0 0.00 0.00 0.00 76 1011.2
20180117071856 76 86 0.0 6.0 0.00 0.00 0.00 76 1011.1
20180117070209 76 85 2.0 5.0 0.00 0.00 0.00 76 1011.0
20180117064915 76 85 1.0 7.0 0.00 0.00 0.00 75 1011.2
20180117063002 76 79 2.0 4.0 0.00 0.00 0.00 74 1011.3
20180117061511 76 78 2.0 5.0 0.00 0.00 0.00 73 1011.3
20180117060200 76 76 2.0 7.0 0.00 0.00 0.00 74 1011.1
20180117054512 76 62 2.0 7.0 0.00 0.00 0.00 73 1011.4
20180117053009 76 75 3.0 7.0 0.00 0.00 0.00 74 1011.4
20180117051414 76 69 2.0 5.0 0.00 0.00 0.00 75 1011.5
20180117045855 76 69 0.0 4.0 0.00 0.00 0.00 75 1011.7
20180117044421 76 69 1.0 4.0 0.00 0.00 0.00 75 1011.6
20180117042859 77 69 2.0 8.0 0.00 0.00 0.00 76 1011.5
20180117041414 77 78 2.0 5.0 0.00 0.00 0.00 76 1011.5
20180117035752 77 78 1.0 7.0 0.00 0.00 0.00 76 1011.7
20180117034404 77 77 2.0 5.0 0.00 0.00 0.00 76 1011.6
20180117032808 77 76 2.0 8.0 0.00 0.00 0.00 77 1011.5
20180117031412 78 74 3.0 8.0 0.00 0.00 0.00 76 1011.6
20180117025703 79 72 4.0 9.0 0.00 0.00 0.00 71 1011.7
20180117024203 79 76 4.0 10.0 0.00 0.00 0.00 68 1011.7
20180117022712 80 96 4.0 11.0 0.00 0.00 0.00 67 1011.8
20180117021159 80 94 5.0 10.0 0.00 0.00 0.00 65 1011.9
20180117015708 80 84 3.0 9.0 0.00 0.00 0.00 64 1012.1
20180117014110 80 107 2.0 7.0 0.00 0.00 0.00 62 1012.2
20180117012656 81 99 2.0 9.0 0.00 0.00 0.00 63 1012.2
20180117011106 81 76 1.0 8.0 0.00 0.00 0.00 63 1012.2
20180117005655 81 82 4.0 12.0 0.00 0.00 0.00 62 1012.3
20180117004010 81 86 1.0 7.0 0.00 0.00 0.00 61 1012.1
20180117002709 81 96 2.0 7.0 0.00 0.00 0.00 60 1012.1
20180117001002 82 116 2.0 7.0 0.00 0.00 0.00 60 1012.2
20180116235716 82 140 1.0 5.0 0.00 0.00 0.00 59 1012.1
20180116233914 82 104 2.0 10.0 0.00 0.00 0.00 57 1012.1
20180116232651 82 130 1.0 5.0 0.00 0.00 0.00 57 1012.1
20180116230910 82 121 1.0 8.0 0.00 0.00 0.00 56 1012.1
20180116225409 83 121 2.0 7.0 0.00 0.00 0.00 55 1012.0
20180116223905 83 82 3.0 9.0 0.00 0.00 0.00 53 1012.0
20180116222303 84 90 2.0 7.0 0.00 0.00 0.00 53 1012.0
20180116220907 84 102 1.0 7.0 0.00 0.00 0.00 52 1011.9
20180116215404 84 63 4.0 9.0 0.00 0.00 0.00 52 1011.9